Time;durP1;ratioP1;P1;durP2;ratioP2;P2;SDS_P1;SDS_P2;PMS_P1;PMS_P2;Temp;Humidity;BMP_temperature;BMP_pressure;BME280_temperature;BME280_humidity;BME280_pressure;Samples;Min_cycle;Max_cycle;Signal;HPM_P1;HPM_P2
2023/03/22 00:00:53;;;;;;;;;9.33;8.00;;;;;12.67;71.20;100807.28;5057580;28;45478;-75
2023/03/22 00:03:20;;;;;;;;;7.00;7.00;;;;;12.70;71.35;100820.31;5057125;28;45531;-72
2023/03/22 00:05:45;;;;;;;;;8.00;8.00;;;;;12.68;71.61;100830.28;5057588;28;45440;-76
2023/03/22 00:08:12;;;;;;;;;7.33;7.33;;;;;12.40;71.27;100774.41;5038295;28;47370;-73
2023/03/22 00:10:37;;;;;;;;;7.00;6.00;;;;;12.62;71.79;100833.59;5057480;28;45315;-75
2023/03/22 00:13:04;;;;;;;;;8.33;7.33;;;;;11.24;71.33;100593.41;5057489;28;45422;-74
2023/03/22 00:15:30;;;;;;;;;7.67;7.00;;;;;12.62;71.67;100812.25;5039545;28;45750;-75
2023/03/22 00:17:57;;;;;;;;;7.33;6.33;;;;;10.16;71.28;100421.44;5056060;28;46907;-74
2023/03/22 00:20:23;;;;;;;;;9.33;7.00;;;;;12.49;71.39;100809.97;5055706;28;46764;-75
2023/03/22 00:22:49;;;;;;;;;5.00;5.00;;;;;12.41;71.36;100800.09;5056372;28;45783;-74
2023/03/22 00:25:16;;;;;;;;;8.67;7.33;;;;;12.49;71.02;100801.97;5057544;28;45259;-74
2023/03/22 00:27:42;;;;;;;;;10.00;7.67;;;;;12.22;71.04;100770.94;5038895;28;47726;-74
2023/03/22 00:30:09;;;;;;;;;6.00;5.33;;;;;11.84;70.77;100703.66;5056738;28;45344;-77
2023/03/22 00:32:36;;;;;;;;;8.00;6.33;;;;;11.35;70.70;100616.28;5038940;28;45519;-73
2023/03/22 00:35:03;;;;;;;;;3.33;3.33;;;;;12.44;70.45;100801.63;5046569;28;45461;-75
2023/03/22 00:37:33;;;;;;;;;5.33;5.00;;;;;12.34;70.35;100780.34;5054928;28;45543;-74
2023/03/22 00:40:03;;;;;;;;;6.67;6.67;;;;;12.39;70.19;100799.38;5039044;28;45397;-75
2023/03/22 00:42:29;;;;;;;;;5.67;4.00;;;;;9.69;69.52;100363.13;5056119;28;45355;-75
2023/03/22 00:44:54;;;;;;;;;5.00;5.00;;;;;12.32;69.88;100771.69;5057756;28;45396;-73
2023/03/22 00:47:20;;;;;;;;;6.67;5.33;;;;;12.26;69.71;100763.47;5056650;28;45675;-73
2023/03/22 00:49:45;;;;;;;;;4.67;4.67;;;;;11.99;69.78;100721.75;5038674;28;45414;-75
2023/03/22 00:52:11;;;;;;;;;6.33;4.00;;;;;11.77;69.74;100699.06;5056537;28;45352;-76
2023/03/22 00:54:36;;;;;;;;;5.00;5.00;;;;;11.41;69.54;100621.88;5056950;28;45284;-76
2023/03/22 00:57:02;;;;;;;;;7.00;6.00;;;;;11.96;69.39;100701.59;5038287;28;48340;-74
2023/03/22 00:59:27;;;;;;;;;5.33;4.00;;;;;12.29;68.78;100756.00;5056817;28;45405;-74
2023/03/22 01:01:53;;;;;;;;;5.67;4.00;;;;;12.16;69.17;100744.88;5038664;28;46442;-72
2023/03/22 01:04:24;;;;;;;;;5.00;4.00;;;;;11.98;69.20;100723.59;5038715;28;45269;-74
2023/03/22 01:06:51;;;;;;;;;4.00;3.00;;;;;11.63;69.03;100662.31;5048829;28;46672;-75
2023/03/22 01:09:16;;;;;;;;;6.00;3.00;;;;;12.19;69.08;100765.91;5056497;28;45531;-74
2023/03/22 01:11:42;;;;;;;;;2.00;2.00;;;;;11.92;69.13;100715.38;5064103;28;47166;-73
2023/03/22 01:14:08;;;;;;;;;2.33;2.33;;;;;12.14;68.63;100744.22;5061579;28;45404;-74
2023/03/22 01:16:35;;;;;;;;;2.00;2.00;;;;;11.82;68.54;100697.66;5059179;28;45328;-74
2023/03/22 01:19:02;;;;;;;;;5.67;2.33;;;;;11.94;68.69;100711.56;5056943;28;45455;-74
2023/03/22 01:21:27;;;;;;;;;5.00;3.67;;;;;11.97;68.96;100711.25;5056596;28;45285;-74
2023/03/22 01:23:53;;;;;;;;;2.00;2.00;;;;;11.68;68.54;100676.84;5056660;28;45462;-74
2023/03/22 01:26:18;;;;;;;;;5.67;3.00;;;;;12.05;68.87;100718.50;5055724;28;46392;-75
2023/03/22 01:28:44;;;;;;;;;3.00;2.67;;;;;11.87;68.63;100690.03;5056686;28;45662;-74
2023/03/22 01:31:09;;;;;;;;;2.00;2.00;;;;;11.58;68.90;100644.97;5069415;28;45446;-75
2023/03/22 01:33:35;;;;;;;;;3.00;3.00;;;;;11.76;68.68;100666.25;5059825;28;45397;-74
2023/03/22 01:36:00;;;;;;;;;3.00;2.00;;;;;12.06;68.42;100712.19;5050039;28;47763;-73
2023/03/22 01:38:26;;;;;;;;;4.67;4.00;;;;;12.06;69.02;100712.19;5059163;28;45376;-73
2023/03/22 01:40:51;;;;;;;;;3.67;2.00;;;;;11.47;68.75;100634.56;5060769;28;45408;-75
2023/03/22 01:43:17;;;;;;;;;2.33;2.33;;;;;11.94;68.51;100698.25;5055508;28;45648;-75
2023/03/22 01:45:51;;;;;;;;;2.00;2.00;;;;;11.03;68.91;100547.66;5059046;28;46531;-73
2023/03/22 01:48:16;;;;;;;;;2.00;2.00;;;;;11.94;69.02;100692.91;5059094;28;45476;-74
2023/03/22 01:50:48;;;;;;;;;3.67;1.33;;;;;11.94;68.82;100689.41;5047125;28;45330;-72
2023/03/22 01:53:17;;;;;;;;;3.33;2.00;;;;;11.95;69.15;100677.75;5059379;28;45439;-75
2023/03/22 01:55:45;;;;;;;;;2.00;2.00;;;;;11.91;69.48;100687.06;5058779;28;45767;-75
2023/03/22 01:58:11;;;;;;;;;2.67;1.33;;;;;11.84;69.37;100681.53;5061239;28;45224;-76
2023/03/22 02:00:36;;;;;;;;;2.33;2.00;;;;;11.76;69.30;100663.59;5059495;28;45416;-75
2023/03/22 02:03:03;;;;;;;;;3.00;2.00;;;;;11.82;69.73;100679.00;5059259;28;45533;-74
2023/03/22 02:05:29;;;;;;;;;5.33;2.33;;;;;11.49;69.82;100623.75;5058831;28;46764;-74
2023/03/22 02:07:55;;;;;;;;;5.00;3.33;;;;;11.58;69.94;100639.63;5041481;28;46044;-77
2023/03/22 02:10:25;;;;;;;;;4.33;2.67;;;;;11.73;69.74;100663.91;5057950;28;45339;-75
2023/03/22 02:13:28;;;;;;;;;2.00;1.33;;;;;11.57;69.78;100626.47;5047857;28;45277;-74
2023/03/22 02:16:11;;;;;;;;;2.00;1.00;;;;;11.73;70.30;100650.59;5058485;28;45567;-76
2023/03/22 02:19:03;;;;;;;;;5.00;3.00;;;;;11.60;70.07;100626.16;5058567;28;45343;-75
2023/03/22 02:21:50;;;;;;;;;2.67;1.67;;;;;11.65;70.56;100644.38;5056194;28;45644;-72
2023/03/22 02:24:22;;;;;;;;;2.00;2.00;;;;;11.60;70.30;100639.47;5058739;28;45349;-75
2023/03/22 02:27:18;;;;;;;;;3.00;2.00;;;;;11.62;70.38;100629.53;5051049;28;48525;-74
2023/03/22 02:30:16;;;;;;;;;2.00;2.00;;;;;11.59;70.55;100628.00;5058523;28;45360;-75
2023/03/22 02:33:04;;;;;;;;;3.00;3.00;;;;;11.54;71.11;100634.78;5044374;28;45644;-73
2023/03/22 02:35:32;;;;;;;;;4.00;2.67;;;;;11.55;71.06;100623.13;5053075;28;45535;-73
2023/03/22 02:38:22;;;;;;;;;4.00;3.00;;;;;11.51;70.83;100633.25;5059040;28;47030;-73
2023/03/22 02:41:12;;;;;;;;;2.67;2.67;;;;;11.45;71.00;100633.03;5057655;28;45340;-73
2023/03/22 02:43:45;;;;;;;;;3.33;2.00;;;;;11.40;70.74;100614.84;5058213;28;45273;-75
2023/03/22 02:46:22;;;;;;;;;4.00;4.00;;;;;10.64;70.95;100502.72;5057847;28;45716;-73
2023/03/22 02:49:10;;;;;;;;;4.33;4.00;;;;;11.43;70.83;100637.69;5058082;28;45566;-74
2023/03/22 02:51:42;;;;;;;;;6.00;3.67;;;;;11.13;71.43;100591.81;5063595;28;45411;-73
2023/03/22 02:54:14;;;;;;;;;6.33;3.33;;;;;11.16;71.09;100607.47;5060186;28;45294;-75
2023/03/22 02:56:45;;;;;;;;;3.00;3.00;;;;;11.07;70.96;100587.09;5059227;28;45484;-74
2023/03/22 02:59:14;;;;;;;;;0.33;0.33;;;;;11.16;71.06;100598.66;5057613;28;46578;-74
2023/03/22 03:01:47;;;;;;;;;5.00;3.00;;;;;11.13;71.04;100586.47;5053847;28;45408;-74
2023/03/22 03:04:18;;;;;;;;;3.00;2.00;;;;;11.05;71.24;100582.91;5058193;28;45515;-74
2023/03/22 03:06:47;;;;;;;;;4.67;1.00;;;;;10.43;71.42;100480.91;5058205;28;45529;-73
2023/03/22 03:09:19;;;;;;;;;4.00;3.00;;;;;11.42;71.66;100642.19;5057687;28;45604;-75
2023/03/22 03:11:49;;;;;;;;;6.00;5.00;;;;;11.49;70.91;100653.03;5057819;28;45446;-76
2023/03/22 03:14:27;;;;;;;;;3.00;2.67;;;;;10.81;70.49;100538.25;5057895;28;45546;-77
2023/03/22 03:17:29;;;;;;;;;3.00;2.00;;;;;11.48;71.02;100654.03;5058669;28;45573;-75
2023/03/22 03:20:11;;;;;;;;;5.00;2.67;;;;;10.84;71.09;100543.31;5052901;28;48428;-76
2023/03/22 03:22:42;;;;;;;;;3.33;2.00;;;;;11.51;70.78;100637.75;5051102;28;45337;-76
2023/03/22 03:25:22;;;;;;;;;3.00;3.00;;;;;11.53;71.02;100636.59;5058005;28;45203;-75
2023/03/22 03:28:02;;;;;;;;;2.33;2.33;;;;;11.57;70.82;100637.97;5058755;28;45324;-73
2023/03/22 03:30:37;;;;;;;;;4.33;1.00;;;;;11.61;70.80;100633.16;5072357;28;49079;-73
2023/03/22 03:33:12;;;;;;;;;3.00;3.00;;;;;11.62;70.64;100645.53;5047140;28;45516;-77
2023/03/22 03:35:43;;;;;;;;;4.00;2.00;;;;;11.30;70.57;100587.47;5058605;28;45236;-74
2023/03/22 03:38:10;;;;;;;;;3.67;3.67;;;;;11.68;70.20;100638.72;5057407;28;45396;-73
2023/03/22 03:40:40;;;;;;;;;4.00;4.00;;;;;11.22;70.14;100574.94;5057346;28;46396;-77
2023/03/22 03:43:07;;;;;;;;;4.00;3.00;;;;;11.59;70.30;100624.50;5057654;28;45556;-75
2023/03/22 03:45:34;;;;;;;;;4.33;3.00;;;;;11.17;70.71;100561.25;5049256;28;45444;-75
2023/03/22 03:48:07;;;;;;;;;4.00;2.00;;;;;11.19;70.26;100567.25;5057403;28;45431;-72
2023/03/22 03:50:33;;;;;;;;;2.67;2.67;;;;;11.68;70.30;100628.91;5048232;28;45337;-76
2023/03/22 03:52:59;;;;;;;;;2.33;2.33;;;;;11.70;69.80;100626.09;5054660;28;46000;-75
2023/03/22 03:55:26;;;;;;;;;1.67;1.67;;;;;11.64;70.31;100640.88;5057207;28;45512;-74
2023/03/22 03:57:52;;;;;;;;;6.00;4.00;;;;;11.14;69.75;100529.63;5057227;28;45250;-74
2023/03/22 04:00:18;;;;;;;;;6.67;2.67;;;;;10.84;69.67;100490.13;5056423;28;45857;-75
2023/03/22 04:02:44;;;;;;;;;3.67;3.33;;;;;11.69;69.59;100635.91;5047193;28;45495;-75
2023/03/22 04:05:11;;;;;;;;;2.00;1.00;;;;;11.75;69.91;100631.78;5056990;28;45412;-74
2023/03/22 04:07:37;;;;;;;;;5.67;3.00;;;;;10.85;69.62;100471.34;5057177;28;45426;-74
2023/03/22 04:10:04;;;;;;;;;4.00;2.33;;;;;11.78;69.77;100624.34;5049525;28;47621;-74
2023/03/22 04:12:30;;;;;;;;;2.00;2.00;;;;;11.84;69.21;100633.56;5049112;28;46217;-76
2023/03/22 04:14:55;;;;;;;;;5.67;2.00;;;;;11.81;69.55;100634.72;5057019;28;45238;-73
2023/03/22 04:17:21;;;;;;;;;2.00;1.00;;;;;11.03;68.73;100503.25;5057353;28;45422;-74
2023/03/22 04:19:47;;;;;;;;;3.00;2.00;;;;;11.86;69.08;100640.41;5056543;28;46453;-75
2023/03/22 04:22:13;;;;;;;;;6.67;4.00;;;;;11.49;69.11;100552.72;5057176;28;45288;-75
2023/03/22 04:24:40;;;;;;;;;4.33;3.00;;;;;11.77;69.01;100608.50;5056972;28;45314;-75
2023/03/22 04:27:07;;;;;;;;;2.00;2.00;;;;;11.71;68.77;100591.31;5047206;28;45368;-74
2023/03/22 04:29:35;;;;;;;;;5.00;2.67;;;;;11.56;68.89;100563.56;5056569;28;46774;-74
2023/03/22 04:32:01;;;;;;;;;1.00;1.00;;;;;11.97;68.61;100628.66;5047842;28;45512;-75
2023/03/22 04:34:26;;;;;;;;;2.50;2.00;;;;;11.00;68.46;100468.97;5064457;28;45259;-74
2023/03/22 04:36:51;;;;;;;;;3.67;2.00;;;;;11.90;68.80;100610.78;5059386;28;45633;-74
2023/03/22 04:39:17;;;;;;;;;1.33;1.00;;;;;11.85;68.78;100609.44;5047469;28;47497;-74
2023/03/22 04:41:42;;;;;;;;;2.00;1.00;;;;;11.82;68.95;100603.59;5055605;28;45353;-76
2023/03/22 04:44:08;;;;;;;;;2.67;2.00;;;;;11.90;68.31;100605.47;5039903;28;45438;-76
2023/03/22 04:46:35;;;;;;;;;4.00;1.00;;;;;11.94;68.39;100601.50;5048348;28;45356;-75
2023/03/22 04:49:01;;;;;;;;;4.33;1.00;;;;;11.35;68.58;100515.16;5056186;28;46453;-73
2023/03/22 04:51:26;;;;;;;;;3.00;1.33;;;;;11.69;68.17;100565.84;5056390;28;45348;-74
2023/03/22 04:53:53;;;;;;;;;4.33;2.00;;;;;11.51;68.55;100549.88;5056892;28;45427;-76
2023/03/22 04:56:19;;;;;;;;;2.33;1.33;;;;;11.86;68.94;100605.78;5056516;28;45412;-76
2023/03/22 04:58:45;;;;;;;;;2.00;2.00;;;;;11.78;68.91;100586.19;5056333;28;46515;-76
2023/03/22 05:01:13;;;;;;;;;3.33;2.33;;;;;11.84;68.58;100610.44;5056660;28;45426;-80
2023/03/22 05:03:39;;;;;;;;;1.00;1.00;;;;;11.61;69.00;100569.25;5057212;28;45301;-76
2023/03/22 05:06:06;;;;;;;;;2.00;2.00;;;;;11.87;68.90;100628.78;5060021;28;45197;-74
2023/03/22 05:08:32;;;;;;;;;3.00;1.67;;;;;11.35;68.89;100504.50;5059777;28;46034;-76
2023/03/22 05:11:03;;;;;;;;;4.67;2.00;;;;;11.86;68.92;100596.97;5047534;28;46040;-78
2023/03/22 05:13:28;;;;;;;;;3.00;2.00;;;;;11.43;69.13;100534.69;5059739;28;45266;-74
2023/03/22 05:15:54;;;;;;;;;2.00;2.00;;;;;11.58;69.38;100553.59;5056782;28;45387;-76
2023/03/22 05:18:23;;;;;;;;;2.00;1.00;;;;;11.81;69.66;100620.53;5052946;28;48638;-73
2023/03/22 05:20:49;;;;;;;;;4.00;3.00;;;;;11.04;69.10;100507.59;5049417;28;46271;-77
2023/03/22 05:23:19;;;;;;;;;2.33;2.00;;;;;11.70;69.41;100583.50;5059351;28;45210;-76
2023/03/22 05:25:46;;;;;;;;;3.33;3.00;;;;;11.38;69.38;100536.97;5059191;28;45384;-75
2023/03/22 05:28:13;;;;;;;;;6.67;5.00;;;;;11.81;70.24;100613.41;5059098;28;45940;-74
2023/03/22 05:30:40;;;;;;;;;3.00;3.00;;;;;10.86;69.74;100461.53;5053204;28;46308;-75
2023/03/22 05:33:06;;;;;;;;;3.00;2.00;;;;;11.80;69.37;100617.03;5050815;28;45298;-75
2023/03/22 05:35:33;;;;;;;;;6.00;2.67;;;;;10.83;69.50;100443.25;5058029;28;45238;-75
2023/03/22 05:37:58;;;;;;;;;3.00;2.00;;;;;11.67;70.14;100574.00;5058848;28;46520;-74
2023/03/22 05:40:24;;;;;;;;;3.00;2.67;;;;;10.98;70.06;100460.31;5059097;28;45310;-75
2023/03/22 05:42:50;;;;;;;;;5.67;2.00;;;;;11.81;70.08;100594.78;5059178;28;45487;-75
2023/03/22 05:45:16;;;;;;;;;5.67;4.33;;;;;11.58;70.81;100580.22;5041144;28;45300;-78
2023/03/22 05:47:41;;;;;;;;;4.67;4.67;;;;;11.78;70.55;100599.50;5059807;28;46223;-73
2023/03/22 05:50:09;;;;;;;;;5.33;3.00;;;;;11.59;70.75;100592.53;5043092;28;45451;-76
2023/03/22 05:52:34;;;;;;;;;4.00;3.00;;;;;11.74;70.52;100617.63;5037126;28;45451;-73
2023/03/22 05:55:00;;;;;;;;;2.33;2.33;;;;;11.75;70.52;100611.31;5053683;28;45624;-74
2023/03/22 05:57:26;;;;;;;;;2.00;1.00;;;;;11.25;70.86;100524.06;5058293;28;45519;-75
2023/03/22 05:59:52;;;;;;;;;5.00;5.00;;;;;11.05;70.64;100479.16;5058871;28;45239;-74
2023/03/22 06:02:19;;;;;;;;;5.33;3.00;;;;;11.54;70.69;100555.75;5042521;28;45498;-74
2023/03/22 06:04:45;;;;;;;;;5.00;3.00;;;;;11.69;70.73;100577.31;5049329;28;45432;-75
2023/03/22 06:07:11;;;;;;;;;2.67;2.67;;;;;11.71;70.52;100585.16;5058664;28;45630;-74
2023/03/22 06:09:37;;;;;;;;;6.00;5.67;;;;;10.47;70.68;100346.72;5059225;28;45481;-75
2023/03/22 06:12:02;;;;;;;;;3.00;3.00;;;;;11.07;70.23;100443.44;5061020;28;45458;-75
2023/03/22 06:14:27;;;;;;;;;6.67;3.00;;;;;11.81;70.89;100576.13;5063140;28;45443;-75
2023/03/22 06:16:53;;;;;;;;;10.67;8.00;;;;;11.96;70.57;100580.84;5048772;28;47187;-74
2023/03/22 06:19:18;;;;;;;;;4.67;4.67;;;;;11.96;70.37;100588.84;5059005;28;45362;-75
2023/03/22 06:21:44;;;;;;;;;6.00;6.00;;;;;11.95;71.03;100592.50;5058614;28;45283;-75
2023/03/22 06:24:09;;;;;;;;;7.33;5.33;;;;;11.66;71.00;100545.69;5058661;28;45395;-75
2023/03/22 06:26:35;;;;;;;;;4.33;4.33;;;;;11.68;70.90;100549.03;5058663;28;45770;-76
2023/03/22 06:29:02;;;;;;;;;6.67;6.67;;;;;11.55;70.43;100519.28;5058223;28;45431;-76
2023/03/22 06:31:28;;;;;;;;;5.67;4.33;;;;;11.67;70.78;100555.34;5059517;28;46180;-76
2023/03/22 06:33:53;;;;;;;;;4.33;4.33;;;;;12.02;70.49;100605.06;5061647;28;45539;-76
2023/03/22 06:36:18;;;;;;;;;5.67;5.00;;;;;11.59;70.00;100540.13;5058224;28;46002;-75
2023/03/22 06:38:44;;;;;;;;;6.00;4.67;;;;;11.99;69.93;100613.34;5040166;28;45364;-75
2023/03/22 06:41:09;;;;;;;;;3.67;2.00;;;;;12.12;70.39;100615.59;5058281;28;45312;-75
2023/03/22 06:43:34;;;;;;;;;8.00;6.00;;;;;11.86;69.99;100571.16;5039328;28;45437;-76
2023/03/22 06:46:00;;;;;;;;;6.00;3.00;;;;;11.73;69.30;100535.22;5057149;28;56536;-76
2023/03/22 06:48:25;;;;;;;;;7.33;6.00;;;;;12.26;69.26;100627.53;5057830;28;45503;-75
2023/03/22 06:50:51;;;;;;;;;5.33;5.00;;;;;12.19;69.04;100616.63;5050230;28;45928;-75
2023/03/22 06:53:16;;;;;;;;;5.00;5.00;;;;;11.36;69.39;100484.88;5062285;28;49181;-76
2023/03/22 06:55:42;;;;;;;;;5.00;5.00;;;;;11.78;69.46;100565.75;5065294;28;47609;-76
2023/03/22 06:58:07;;;;;;;;;3.67;3.67;;;;;12.07;69.46;100602.75;5058279;28;45352;-75
2023/03/22 07:00:33;;;;;;;;;10.00;9.67;;;;;12.10;69.51;100617.59;5052269;28;45449;-75
2023/03/22 07:02:58;;;;;;;;;7.00;7.00;;;;;11.90;69.12;100587.66;5058559;28;45534;-75
2023/03/22 07:05:24;;;;;;;;;7.00;5.00;;;;;12.26;69.50;100649.69;5059128;28;46322;-74
2023/03/22 07:07:49;;;;;;;;;6.00;4.33;;;;;11.62;69.60;100541.66;5058206;28;45466;-74
2023/03/22 07:10:14;;;;;;;;;5.00;4.33;;;;;11.75;69.30;100565.22;5045889;28;45481;-75
2023/03/22 07:12:40;;;;;;;;;5.33;5.00;;;;;12.21;69.16;100635.97;5057921;28;45184;-76
2023/03/22 07:15:06;;;;;;;;;10.67;7.00;;;;;12.09;69.62;100623.91;5049821;28;46330;-75
2023/03/22 07:17:31;;;;;;;;;8.67;7.33;;;;;12.24;69.15;100657.00;5039435;28;45838;-74
2023/03/22 07:19:57;;;;;;;;;6.67;5.00;;;;;11.99;70.00;100615.19;5057910;28;45511;-74
2023/03/22 07:22:23;;;;;;;;;4.00;4.00;;;;;11.39;69.50;100508.53;5057842;28;45443;-76
2023/03/22 07:24:51;;;;;;;;;5.67;4.33;;;;;12.16;69.09;100627.63;5058149;28;45535;-80
2023/03/22 07:27:18;;;;;;;;;5.00;5.00;;;;;12.32;69.20;100646.38;5040043;28;45472;-74
2023/03/22 07:29:43;;;;;;;;;8.33;6.00;;;;;12.34;69.00;100643.56;5058563;28;45406;-76
2023/03/22 07:32:09;;;;;;;;;6.67;6.00;;;;;12.15;69.07;100604.63;5059080;28;45346;-75
2023/03/22 07:34:34;;;;;;;;;7.50;5.00;;;;;10.98;68.61;100407.09;5058542;28;46371;-75
2023/03/22 07:37:01;;;;;;;;;6.00;4.00;;;;;11.35;68.68;100451.28;5039197;28;45780;-77
2023/03/22 07:39:28;;;;;;;;;8.00;6.00;;;;;12.18;68.40;100583.00;5042140;28;45566;-75
2023/03/22 07:41:54;;;;;;;;;9.00;7.33;;;;;11.87;68.34;100548.84;5058117;28;45198;-78
2023/03/22 07:44:20;;;;;;;;;8.00;8.00;;;;;12.15;68.78;100585.97;5057493;28;46831;-75
2023/03/22 07:46:46;;;;;;;;;4.00;4.00;;;;;12.56;68.15;100634.16;5039304;28;45409;-75
2023/03/22 07:49:11;;;;;;;;;6.67;5.00;;;;;12.64;68.54;100652.91;5040145;28;45509;-78
2023/03/22 07:51:36;;;;;;;;;5.00;4.00;;;;;12.67;67.96;100653.41;5063827;28;45502;-72
2023/03/22 07:54:02;;;;;;;;;5.33;5.33;;;;;12.78;67.63;100670.94;5058364;28;46445;-76
2023/03/22 07:56:27;;;;;;;;;6.33;6.33;;;;;12.83;68.07;100666.00;5039445;28;49149;-76
2023/03/22 07:58:53;;;;;;;;;13.33;10.67;;;;;12.76;68.58;100662.28;5057343;28;45559;-73
2023/03/22 08:01:18;;;;;;;;;7.00;5.00;;;;;12.82;68.39;100667.00;5057845;28;45285;-76
2023/03/22 08:03:43;;;;;;;;;10.00;6.67;;;;;12.59;68.46;100644.53;5057039;28;45449;-77
2023/03/22 08:06:11;;;;;;;;;6.33;6.33;;;;;12.64;69.53;100639.56;5056526;28;45676;-77
2023/03/22 08:08:37;;;;;;;;;6.00;6.00;;;;;12.57;68.97;100638.50;5057972;28;45644;-77
2023/03/22 08:11:06;;;;;;;;;6.00;4.33;;;;;12.64;69.39;100652.91;5056822;28;45590;-73
2023/03/22 08:13:31;;;;;;;;;10.00;8.33;;;;;12.69;69.46;100671.91;5052461;28;45442;-77
2023/03/22 08:15:57;;;;;;;;;7.67;5.00;;;;;12.44;69.39;100623.81;5057158;28;45265;-76
2023/03/22 08:18:22;;;;;;;;;11.67;10.00;;;;;12.59;69.00;100655.19;5040401;28;45551;-79
2023/03/22 08:20:58;;;;;;;;;8.67;6.00;;;;;11.20;69.49;100443.00;5058583;28;45491;-77
2023/03/22 08:23:26;;;;;;;;;5.67;4.67;;;;;12.67;69.38;100669.41;5043372;28;48361;-77
2023/03/22 08:25:51;;;;;;;;;8.00;5.00;;;;;12.74;69.18;100674.94;5057523;28;45491;-75
2023/03/22 08:28:17;;;;;;;;;10.33;7.00;;;;;12.82;69.36;100676.81;5057954;28;45144;-75
2023/03/22 08:30:44;;;;;;;;;5.33;4.33;;;;;12.44;69.41;100620.31;5057971;28;45164;-77
2023/03/22 08:33:10;;;;;;;;;10.67;7.67;;;;;12.83;69.78;100679.34;5041700;28;46755;-73
2023/03/22 08:35:35;;;;;;;;;8.00;6.00;;;;;12.56;69.59;100634.16;5037258;28;45455;-75
2023/03/22 08:38:01;;;;;;;;;4.33;4.33;;;;;12.26;69.31;100585.72;5019488;28;46008;-75
2023/03/22 08:40:26;;;;;;;;;7.67;6.33;;;;;12.58;70.09;100626.84;5052919;28;45318;-76
2023/03/22 08:42:52;;;;;;;;;7.00;6.33;;;;;11.94;69.46;100529.56;5047099;28;48299;-76
2023/03/22 08:45:17;;;;;;;;;20.67;18.33;;;;;12.56;70.33;100631.50;5062189;28;45385;-75
2023/03/22 08:47:44;;;;;;;;;6.67;6.00;;;;;12.75;70.54;100661.44;5063766;28;45321;-74
2023/03/22 08:50:11;;;;;;;;;7.33;6.33;;;;;12.73;70.87;100660.75;5060806;28;45444;-78
2023/03/22 08:52:36;;;;;;;;;6.33;5.00;;;;;11.92;70.40;100539.56;5056715;28;48032;-76
2023/03/22 08:55:03;;;;;;;;;9.33;6.00;;;;;12.80;70.06;100664.44;5057626;28;45365;-75
2023/03/22 08:57:28;;;;;;;;;9.33;5.00;;;;;12.37;70.51;100574.75;5040013;28;45240;-74
2023/03/22 08:59:56;;;;;;;;;7.00;6.00;;;;;12.68;70.57;100616.91;5055660;28;45220;-75
2023/03/22 09:02:22;;;;;;;;;4.00;4.00;;;;;12.84;70.70;100619.63;5037965;28;46567;-75
2023/03/22 09:04:47;;;;;;;;;6.67;6.33;;;;;12.83;70.99;100636.66;5050737;28;45492;-75
2023/03/22 09:07:13;;;;;;;;;5.00;5.00;;;;;12.74;70.65;100618.91;5062886;28;45611;-77
2023/03/22 09:09:38;;;;;;;;;6.67;4.00;;;;;12.59;71.48;100567.19;5044378;28;45403;-76
2023/03/22 09:12:04;;;;;;;;;4.00;4.00;;;;;12.97;71.44;100645.84;5060292;28;48702;-76
2023/03/22 09:14:30;;;;;;;;;7.00;5.67;;;;;12.40;71.59;100566.44;5044433;28;45732;-75
2023/03/22 09:16:55;;;;;;;;;7.33;3.00;;;;;12.77;71.82;100643.44;5069393;28;45379;-76
2023/03/22 09:19:21;;;;;;;;;4.67;4.67;;;;;12.49;72.29;100584.16;5046113;28;45451;-76
2023/03/22 09:21:46;;;;;;;;;7.33;4.67;;;;;12.89;72.52;100641.31;5059866;28;45712;-76
2023/03/22 09:24:12;;;;;;;;;8.00;6.67;;;;;12.21;72.27;100537.34;5058844;28;45888;-76
2023/03/22 09:26:37;;;;;;;;;8.00;7.00;;;;;12.69;73.10;100626.56;5060730;28;45520;-74
2023/03/22 09:29:03;;;;;;;;;6.00;6.00;;;;;12.86;72.62;100636.31;5060872;28;45380;-76
2023/03/22 09:31:28;;;;;;;;;8.00;5.67;;;;;12.95;72.71;100629.16;5058946;28;46873;-77
2023/03/22 09:33:54;;;;;;;;;4.33;4.33;;;;;12.96;73.14;100650.34;5042425;28;45186;-77
2023/03/22 09:36:19;;;;;;;;;7.00;5.67;;;;;12.92;72.68;100614.31;5060186;28;45416;-77
2023/03/22 09:38:46;;;;;;;;;5.33;5.00;;;;;12.59;73.10;100559.19;5053955;28;45530;-77
2023/03/22 09:41:26;;;;;;;;;6.33;5.33;;;;;12.86;73.44;100624.81;5060116;28;45494;-76
2023/03/22 09:43:59;;;;;;;;;4.67;4.00;;;;;12.82;73.32;100618.97;5059904;28;45353;-78
2023/03/22 09:46:32;;;;;;;;;10.00;8.67;;;;;12.38;73.00;100544.44;5041908;28;45624;-76
2023/03/22 09:49:01;;;;;;;;;8.67;8.00;;;;;11.99;73.42;100450.81;5059960;28;45864;-77
2023/03/22 09:51:44;;;;;;;;;6.33;6.33;;;;;12.98;73.54;100621.66;5040835;28;47237;-77
2023/03/22 09:54:22;;;;;;;;;6.00;6.00;;;;;12.22;73.36;100488.41;5058932;28;45518;-76
2023/03/22 09:57:17;;;;;;;;;8.00;6.00;;;;;12.89;73.01;100606.63;5044344;28;45431;-76
2023/03/22 09:59:52;;;;;;;;;8.00;8.00;;;;;13.04;73.43;100628.22;5052096;28;45332;-75
2023/03/22 10:02:39;;;;;;;;;7.00;7.00;;;;;13.12;73.47;100603.34;5041342;28;48223;-75
2023/03/22 10:05:31;;;;;;;;;7.33;7.33;;;;;13.14;73.42;100606.69;5040772;28;45456;-76
2023/03/22 10:08:50;;;;;;;;;10.00;10.00;;;;;13.16;72.59;100596.69;5041445;28;45296;-76
2023/03/22 10:11:42;;;;;;;;;9.00;7.67;;;;;13.13;72.72;100589.84;5018042;28;45539;-77
2023/03/22 10:14:23;;;;;;;;;8.00;8.00;;;;;13.17;72.85;100591.19;5052442;28;46481;-76
2023/03/22 10:16:51;;;;;;;;;10.67;10.67;;;;;12.94;73.19;100566.94;5049282;28;45605;-78
2023/03/22 10:19:30;;;;;;;;;9.67;9.00;;;;;13.12;73.39;100598.03;5057754;28;45659;-76
2023/03/22 10:22:00;;;;;;;;;5.00;5.00;;;;;12.84;73.00;100536.09;5058404;28;45354;-76
2023/03/22 10:24:30;;;;;;;;;11.33;8.67;;;;;13.20;73.02;100584.69;5044394;28;47228;-78
2023/03/22 10:26:55;;;;;;;;;7.00;6.00;;;;;12.88;72.49;100527.59;5061677;28;45509;-78
2023/03/22 10:29:36;;;;;;;;;10.67;9.33;;;;;13.01;72.76;100581.34;5041860;28;45370;-76
2023/03/22 10:32:32;;;;;;;;;9.67;8.67;;;;;13.32;72.63;100594.06;5041260;28;45245;-77
2023/03/22 10:34:58;;;;;;;;;9.67;7.00;;;;;12.91;73.01;100529.09;5059125;28;45246;-77
2023/03/22 10:37:30;;;;;;;;;8.00;6.00;;;;;13.35;72.66;100583.91;5051553;28;45365;-77
2023/03/22 10:39:59;;;;;;;;;8.67;6.67;;;;;13.29;72.50;100567.72;5040461;28;45487;-75
2023/03/22 10:42:28;;;;;;;;;8.00;7.00;;;;;13.07;72.55;100529.97;5058709;28;45494;-72
2023/03/22 10:44:59;;;;;;;;;7.00;7.00;;;;;13.43;72.18;100568.91;5058238;28;47683;-77
2023/03/22 10:47:34;;;;;;;;;9.67;8.00;;;;;13.15;72.08;100544.28;5059023;28;45279;-76
2023/03/22 10:50:03;;;;;;;;;8.00;8.00;;;;;13.33;71.99;100563.69;5059038;28;45526;-75
2023/03/22 10:52:53;;;;;;;;;10.67;7.67;;;;;13.51;72.16;100577.72;5046214;28;45312;-75
2023/03/22 10:55:19;;;;;;;;;9.00;9.00;;;;;13.55;72.39;100570.22;5039647;28;46640;-78
2023/03/22 10:57:58;;;;;;;;;8.00;8.00;;;;;13.57;71.92;100561.03;5041252;28;45590;-77
2023/03/22 11:00:24;;;;;;;;;6.00;6.00;;;;;13.03;71.42;100461.91;5048213;28;45333;-75
2023/03/22 11:02:57;;;;;;;;;10.33;9.33;;;;;13.72;70.71;100563.03;5041457;28;45506;-76
2023/03/22 11:05:25;;;;;;;;;9.00;7.00;;;;;13.83;71.04;100554.69;5043047;28;48106;-79
2023/03/22 11:07:51;;;;;;;;;8.67;8.67;;;;;13.13;70.62;100415.50;5060739;28;45270;-77
2023/03/22 11:10:28;;;;;;;;;9.67;9.67;;;;;13.68;70.31;100509.09;5060133;28;45221;-77
2023/03/22 11:13:15;;;;;;;;;14.33;14.00;;;;;14.06;69.93;100557.47;5047131;28;45672;-75
2023/03/22 11:15:50;;;;;;;;;13.33;12.67;;;;;12.60;69.56;100312.81;5077750;28;45688;-78
2023/03/22 11:18:17;;;;;;;;;8.00;6.67;;;;;14.00;69.38;100524.22;5060353;28;45418;-78
2023/03/22 11:20:55;;;;;;;;;7.33;7.33;;;;;13.42;68.92;100431.88;5058182;28;45415;-76
2023/03/22 11:23:22;;;;;;;;;7.00;7.00;;;;;14.19;68.75;100547.03;5058884;28;45299;-77
2023/03/22 11:25:51;;;;;;;;;8.00;7.33;;;;;14.03;68.84;100513.19;5058109;28;46702;-76
2023/03/22 11:28:48;;;;;;;;;7.33;7.33;;;;;14.36;67.85;100537.97;5057978;28;46045;-77
2023/03/22 11:31:16;;;;;;;;;8.00;5.67;;;;;14.36;68.13;100529.94;5056184;28;45474;-75
2023/03/22 11:34:02;;;;;;;;;7.00;7.00;;;;;14.50;67.74;100557.84;5057775;28;45209;-77